createdAt,value
2018-11-10T00:00:42.760Z,0
2018-11-10T00:01:50.809Z,0
2018-11-10T00:02:58.873Z,0
2018-11-10T00:04:07.010Z,0
2018-11-10T00:05:14.979Z,0
2018-11-10T00:06:23.059Z,0
2018-11-10T00:07:31.125Z,0
2018-11-10T00:08:39.189Z,0
2018-11-10T00:09:47.251Z,0
2018-11-10T00:10:55.300Z,0
2018-11-10T00:12:03.368Z,0
2018-11-10T00:13:11.441Z,0
2018-11-10T00:14:19.501Z,0
2018-11-10T00:15:27.554Z,0
2018-11-10T00:16:35.745Z,0
2018-11-10T00:17:43.674Z,0
2018-11-10T00:18:51.753Z,0
2018-11-10T00:19:59.812Z,0
2018-11-10T00:21:07.881Z,0
2018-11-10T00:22:15.930Z,0
2018-11-10T00:23:23.992Z,0
2018-11-10T00:24:32.048Z,0
2018-11-10T00:25:40.116Z,0
2018-11-10T00:26:48.180Z,0
2018-11-10T00:27:56.241Z,0
2018-11-10T00:29:04.287Z,0
2018-11-10T00:30:12.359Z,0
2018-11-10T00:31:20.425Z,0
2018-11-10T00:32:28.498Z,0
2018-11-10T00:33:36.544Z,0
2018-11-10T00:34:44.643Z,0
2018-11-10T00:35:52.685Z,0
2018-11-10T00:37:00.734Z,0
2018-11-10T00:38:08.788Z,0
2018-11-10T00:39:16.853Z,0
2018-11-10T00:40:24.883Z,0
2018-11-10T00:41:33.007Z,0
2018-11-10T00:42:41.048Z,0
2018-11-10T00:43:49.106Z,0
2018-11-10T00:44:57.167Z,0
2018-11-10T00:46:05.236Z,0
2018-11-10T00:47:13.302Z,0
2018-11-10T00:48:21.365Z,0
2018-11-10T00:49:29.409Z,0
2018-11-10T00:50:37.486Z,0
2018-11-10T00:51:45.553Z,0
2018-11-10T00:52:53.634Z,0
2018-11-10T00:54:01.673Z,0
2018-11-10T00:55:09.736Z,0
2018-11-10T00:56:17.786Z,0
2018-11-10T00:57:25.849Z,0
2018-11-10T00:58:33.916Z,0
2018-11-10T00:59:41.983Z,0
2018-11-10T01:00:50.017Z,0
2018-11-10T01:01:58.106Z,0
2018-11-10T01:03:06.159Z,0
2018-11-10T01:04:14.216Z,0
2018-11-10T01:05:22.283Z,0
2018-11-10T01:06:30.339Z,0
2018-11-10T01:07:38.441Z,0
2018-11-10T01:08:46.474Z,0
2018-11-10T01:09:54.505Z,0
2018-11-10T01:11:02.598Z,0
2018-11-10T01:12:10.653Z,0
2018-11-10T01:13:18.725Z,0
2018-11-10T01:14:26.777Z,0
2018-11-10T01:15:34.817Z,0
2018-11-10T01:16:42.907Z,0
2018-11-10T01:17:50.974Z,0
2018-11-10T01:18:59.021Z,0
2018-11-10T01:20:07.079Z,0
2018-11-10T01:21:15.133Z,0
2018-11-10T01:22:23.223Z,0
2018-11-10T01:23:31.273Z,0
2018-11-10T01:24:39.342Z,0
2018-11-10T01:25:47.410Z,0
2018-11-10T01:26:55.489Z,0
2018-11-10T01:28:03.609Z,0
2018-11-10T01:29:11.581Z,0
2018-11-10T01:30:19.632Z,0
2018-11-10T01:31:27.716Z,0
2018-11-10T01:32:35.756Z,0
2018-11-10T01:33:43.820Z,0
2018-11-10T01:34:51.890Z,0
2018-11-10T01:35:59.963Z,0
2018-11-10T01:37:08.014Z,0
2018-11-10T01:38:16.059Z,0
2018-11-10T01:39:24.115Z,0
2018-11-10T01:40:32.201Z,0
2018-11-10T01:41:40.254Z,0
2018-11-10T01:42:48.326Z,0
2018-11-10T01:43:56.386Z,0
2018-11-10T01:45:04.422Z,0
2018-11-10T01:46:12.499Z,0
2018-11-10T01:47:20.558Z,0
2018-11-10T01:48:28.629Z,0
2018-11-10T01:49:36.687Z,0
2018-11-10T01:50:44.724Z,0
2018-11-10T01:51:52.815Z,0
2018-11-10T01:53:00.889Z,0
2018-11-10T01:54:08.941Z,0
2018-11-10T01:55:16.996Z,0
2018-11-10T01:56:25.041Z,0
2018-11-10T01:57:33.130Z,0
2018-11-10T01:58:41.194Z,0
2018-11-10T01:59:49.235Z,0
2018-11-10T02:00:57.312Z,0
2018-11-10T02:02:05.374Z,0
2018-11-10T02:03:13.438Z,0
2018-11-10T02:04:21.494Z,0
2018-11-10T02:05:29.577Z,0
2018-11-10T02:06:37.674Z,0
2018-11-10T02:07:45.688Z,0
2018-11-10T02:08:53.745Z,0
2018-11-10T02:10:01.803Z,0
2018-11-10T02:11:09.861Z,0
2018-11-10T02:12:17.927Z,0
2018-11-10T02:13:25.990Z,0
2018-11-10T02:14:34.109Z,0
2018-11-10T02:15:42.127Z,0
2018-11-10T02:16:50.197Z,0
2018-11-10T02:17:58.231Z,0
2018-11-10T02:19:06.297Z,0
2018-11-10T02:20:14.331Z,0
2018-11-10T02:21:22.430Z,0
2018-11-10T02:22:30.484Z,0
2018-11-10T02:23:38.539Z,0
2018-11-10T02:24:46.600Z,0
2018-11-10T02:25:54.640Z,0
2018-11-10T02:27:02.716Z,0
2018-11-10T02:28:10.778Z,0
2018-11-10T02:29:18.849Z,0
2018-11-10T02:30:26.923Z,0
2018-11-10T02:31:34.952Z,0
2018-11-10T02:32:43.038Z,0
2018-11-10T02:33:51.092Z,0
2018-11-10T02:34:59.155Z,0
2018-11-10T02:36:07.226Z,0
2018-11-10T02:37:15.262Z,0
2018-11-10T02:38:23.399Z,0
2018-11-10T02:39:31.412Z,0
2018-11-10T02:40:39.466Z,0
2018-11-10T02:41:47.514Z,0
2018-11-10T02:42:55.595Z,0
2018-11-10T02:44:03.636Z,0
2018-11-10T02:45:11.706Z,0
2018-11-10T02:46:19.759Z,0
2018-11-10T02:47:27.838Z,0
2018-11-10T02:48:35.895Z,0
2018-11-10T02:49:43.949Z,0
2018-11-10T02:50:52.008Z,0
2018-11-10T02:52:00.079Z,0
2018-11-10T02:53:08.149Z,0
2018-11-10T02:54:16.220Z,0
2018-11-10T02:55:24.254Z,0
2018-11-10T02:56:32.326Z,0
2018-11-10T02:57:40.410Z,0
2018-11-10T02:58:48.457Z,0
2018-11-10T02:59:56.516Z,0
2018-11-10T03:01:04.555Z,0
2018-11-10T03:02:12.634Z,0
2018-11-10T03:03:20.683Z,0
2018-11-10T03:04:28.760Z,0
2018-11-10T03:05:36.817Z,0
2018-11-10T03:06:44.857Z,0
2018-11-10T03:07:52.931Z,0
2018-11-10T03:09:00.999Z,0
2018-11-10T03:10:09.063Z,0
2018-11-10T03:11:17.133Z,0
2018-11-10T03:12:25.182Z,0
2018-11-10T03:13:33.245Z,0
2018-11-10T03:14:41.324Z,0
2018-11-10T03:15:49.367Z,0
2018-11-10T03:16:57.433Z,0
2018-11-10T03:18:05.483Z,0
2018-11-10T03:19:13.554Z,0
2018-11-10T03:20:21.629Z,0
2018-11-10T03:21:29.674Z,0
2018-11-10T03:22:37.739Z,0
2018-11-10T03:23:45.808Z,0
2018-11-10T03:24:53.863Z,0
2018-11-10T03:26:01.932Z,0
2018-11-10T03:27:09.998Z,0
2018-11-10T03:28:18.049Z,0
2018-11-10T03:29:26.126Z,0
2018-11-10T03:30:34.156Z,0
2018-11-10T03:31:42.242Z,0
2018-11-10T03:32:50.302Z,0
2018-11-10T03:33:58.361Z,0
2018-11-10T03:35:06.431Z,0
2018-11-10T03:36:14.458Z,0
2018-11-10T03:37:22.550Z,0
2018-11-10T03:38:30.629Z,0
2018-11-10T03:39:38.658Z,0
2018-11-10T03:40:46.725Z,0
2018-11-10T03:41:54.766Z,0
2018-11-10T03:43:02.861Z,0
2018-11-10T03:44:10.965Z,0
2018-11-10T03:45:18.977Z,0
2018-11-10T03:46:27.051Z,0
2018-11-10T03:47:35.089Z,0
2018-11-10T03:48:43.184Z,0
2018-11-10T03:49:51.229Z,0
2018-11-10T03:50:59.303Z,0
2018-11-10T03:52:07.362Z,0
2018-11-10T03:53:15.437Z,0
2018-11-10T03:54:23.476Z,0
2018-11-10T03:55:31.540Z,0
2018-11-10T03:56:39.610Z,0
2018-11-10T03:57:47.653Z,0
2018-11-10T03:58:55.730Z,0
2018-11-10T04:00:03.778Z,0
2018-11-10T04:01:11.844Z,0
2018-11-10T04:02:19.898Z,0
2018-11-10T04:03:27.962Z,0
2018-11-10T04:04:36.024Z,0
2018-11-10T04:05:44.097Z,0
2018-11-10T04:06:52.138Z,0
2018-11-10T04:08:00.239Z,0
2018-11-10T04:09:08.277Z,0
2018-11-10T04:10:16.349Z,0
2018-11-10T04:11:24.373Z,0
2018-11-10T04:12:32.458Z,0
2018-11-10T04:13:40.513Z,0
2018-11-10T04:14:48.600Z,0
2018-11-10T04:15:56.649Z,0
2018-11-10T04:17:04.677Z,0
2018-11-10T04:18:12.763Z,0
2018-11-10T04:19:20.831Z,0
2018-11-10T04:20:28.882Z,0
2018-11-10T04:21:36.947Z,0
2018-11-10T04:22:44.997Z,0
2018-11-10T04:23:53.076Z,0
2018-11-10T04:25:01.138Z,0
2018-11-10T04:26:09.194Z,0
2018-11-10T04:27:17.250Z,0
2018-11-10T04:28:25.308Z,0
2018-11-10T04:29:33.373Z,0
2018-11-10T04:30:41.433Z,0
2018-11-10T04:31:49.506Z,0
2018-11-10T04:32:57.590Z,0
2018-11-10T04:34:05.620Z,0
2018-11-10T04:35:13.681Z,0
2018-11-10T04:36:21.743Z,0
2018-11-10T04:37:29.820Z,0
2018-11-10T04:38:37.880Z,0
2018-11-10T04:39:45.927Z,0
2018-11-10T04:40:53.993Z,0
2018-11-10T04:42:02.092Z,0
2018-11-10T04:43:10.115Z,0
2018-11-10T04:44:18.173Z,0
2018-11-10T04:45:26.233Z,0
2018-11-10T04:46:34.285Z,0
2018-11-10T04:47:42.371Z,0
2018-11-10T04:48:50.430Z,0
2018-11-10T04:49:58.619Z,0
2018-11-10T04:51:06.544Z,0
2018-11-10T04:52:14.574Z,0
2018-11-10T04:53:22.679Z,0
2018-11-10T04:54:30.741Z,0
2018-11-10T04:55:38.786Z,0
2018-11-10T04:56:46.865Z,0
2018-11-10T04:57:54.880Z,0
2018-11-10T04:59:02.970Z,0
2018-11-10T05:00:11.100Z,0
2018-11-10T05:01:19.155Z,0
2018-11-10T05:02:27.160Z,0
2018-11-10T05:03:35.230Z,0
2018-11-10T05:04:43.284Z,0
2018-11-10T05:05:51.342Z,0
2018-11-10T05:06:59.408Z,0
2018-11-10T05:08:07.463Z,0
2018-11-10T05:09:15.538Z,0
2018-11-10T05:10:23.586Z,0
2018-11-10T05:11:31.651Z,0
2018-11-10T05:12:39.702Z,0
2018-11-10T05:13:47.776Z,0
2018-11-10T05:14:55.853Z,0
2018-11-10T05:16:03.891Z,0
2018-11-10T05:17:11.956Z,0
2018-11-10T05:18:20.034Z,0
2018-11-10T05:19:28.085Z,0
2018-11-10T05:20:36.136Z,0
2018-11-10T05:21:44.192Z,0
2018-11-10T05:22:52.269Z,0
2018-11-10T05:24:00.327Z,0
2018-11-10T05:25:08.387Z,0
2018-11-10T05:26:16.444Z,0
2018-11-10T05:27:24.487Z,0
2018-11-10T05:28:32.557Z,0
2018-11-10T05:29:40.620Z,0
2018-11-10T05:30:48.685Z,0
2018-11-10T05:31:56.762Z,0
2018-11-10T05:33:04.793Z,0
2018-11-10T05:34:12.871Z,0
2018-11-10T05:35:20.941Z,0
2018-11-10T05:36:29.004Z,0
2018-11-10T05:37:37.060Z,0
2018-11-10T05:38:45.108Z,0
2018-11-10T05:39:53.200Z,0
2018-11-10T05:41:01.259Z,0
2018-11-10T05:42:09.313Z,0
2018-11-10T05:43:17.367Z,0
2018-11-10T05:44:25.437Z,0
2018-11-10T05:45:33.495Z,0
2018-11-10T05:46:41.555Z,0
2018-11-10T05:47:49.615Z,0
2018-11-10T05:48:57.676Z,0
2018-11-10T05:50:05.752Z,0
2018-11-10T05:51:13.803Z,0
2018-11-10T05:52:21.857Z,0
2018-11-10T05:53:29.930Z,0
2018-11-10T05:54:38.011Z,0
2018-11-10T05:55:46.053Z,0
2018-11-10T05:56:54.157Z,0
2018-11-10T05:58:02.329Z,0
2018-11-10T05:59:10.234Z,0
2018-11-10T06:00:18.298Z,0
2018-11-10T06:01:26.345Z,0
2018-11-10T06:02:34.387Z,0
2018-11-10T06:03:42.500Z,0
2018-11-10T06:04:50.588Z,0
2018-11-10T06:05:58.604Z,0
2018-11-10T06:07:06.646Z,0
2018-11-10T06:08:14.701Z,0
2018-11-10T06:09:22.929Z,0
2018-11-10T06:10:30.988Z,0
2018-11-10T06:11:38.893Z,0
2018-11-10T06:12:47.502Z,0
2018-11-10T06:13:54.987Z,0
2018-11-10T06:15:03.302Z,0
2018-11-10T06:16:11.256Z,0
2018-11-10T06:17:19.197Z,0
2018-11-10T06:18:27.266Z,5
2018-11-10T06:19:35.321Z,5
2018-11-10T06:20:43.393Z,5
2018-11-10T06:21:51.465Z,5
2018-11-10T06:22:59.515Z,0
2018-11-10T06:24:07.570Z,0
2018-11-10T06:25:15.634Z,5
2018-11-10T06:26:23.713Z,5
2018-11-10T06:27:31.767Z,5
2018-11-10T06:28:39.825Z,5
2018-11-10T06:29:47.876Z,5
2018-11-10T06:30:55.957Z,10
2018-11-10T06:32:03.994Z,10
2018-11-10T06:33:12.072Z,10
2018-11-10T06:34:20.631Z,10
2018-11-10T06:35:28.202Z,10
2018-11-10T06:36:36.261Z,10
2018-11-10T06:37:44.299Z,15
2018-11-10T06:38:52.383Z,15
2018-11-10T06:40:00.439Z,20
2018-11-10T06:41:08.538Z,20
2018-11-10T06:42:16.567Z,20
2018-11-10T06:43:24.599Z,20
2018-11-10T06:44:32.685Z,20
2018-11-10T06:45:40.762Z,25
2018-11-10T06:46:48.811Z,30
2018-11-10T06:47:56.857Z,35
2018-11-10T06:49:04.906Z,35
2018-11-10T06:50:12.985Z,40
2018-11-10T06:51:21.048Z,35
2018-11-10T06:52:29.100Z,35
2018-11-10T06:53:37.191Z,35
2018-11-10T06:54:45.235Z,35
2018-11-10T06:55:53.287Z,40
2018-11-10T06:57:01.365Z,45
2018-11-10T06:58:09.423Z,50
2018-11-10T06:59:17.472Z,50
2018-11-10T07:00:25.540Z,60
2018-11-10T07:01:33.614Z,60
2018-11-10T07:02:41.672Z,55
2018-11-10T07:03:49.738Z,55
2018-11-10T07:04:57.780Z,50
2018-11-10T07:06:05.844Z,55
2018-11-10T07:07:13.897Z,55
2018-11-10T07:08:21.956Z,55
2018-11-10T07:09:30.116Z,55
2018-11-10T07:10:38.078Z,55
2018-11-10T07:11:46.188Z,55
2018-11-10T07:12:54.202Z,55
2018-11-10T07:14:02.274Z,55
2018-11-10T07:15:10.374Z,55
2018-11-10T07:16:18.397Z,60
2018-11-10T07:17:26.470Z,70
2018-11-10T07:18:34.499Z,60
2018-11-10T07:19:42.581Z,60
2018-11-10T07:20:50.644Z,65
2018-11-10T07:21:58.701Z,65
2018-11-10T07:23:06.766Z,65
2018-11-10T07:24:14.789Z,70
2018-11-10T07:25:22.904Z,75
2018-11-10T07:26:30.955Z,70
2018-11-10T07:27:39.011Z,75
2018-11-10T07:28:47.073Z,85
2018-11-10T07:29:55.128Z,100
2018-11-10T07:31:03.195Z,100
2018-11-10T07:32:11.289Z,85
2018-11-10T07:33:19.332Z,85
2018-11-10T07:34:27.395Z,80
2018-11-10T07:35:35.464Z,75
2018-11-10T07:36:43.517Z,75
2018-11-10T07:37:51.579Z,75
2018-11-10T07:38:59.645Z,75
2018-11-10T07:40:07.694Z,80
2018-11-10T07:41:15.757Z,80
2018-11-10T07:42:23.818Z,75
2018-11-10T07:43:31.894Z,70
2018-11-10T07:44:39.955Z,70
2018-11-10T07:45:48.012Z,70
2018-11-10T07:46:56.079Z,70
2018-11-10T07:48:04.144Z,65
2018-11-10T07:49:12.211Z,70
2018-11-10T07:50:20.267Z,75
2018-11-10T07:51:28.324Z,75
2018-11-10T07:52:36.397Z,70
2018-11-10T07:53:44.422Z,70
2018-11-10T07:54:52.517Z,75
2018-11-10T07:56:00.660Z,75
2018-11-10T07:57:08.632Z,75
2018-11-10T07:58:16.697Z,75
2018-11-10T07:59:24.732Z,75
2018-11-10T08:00:32.822Z,75
2018-11-10T08:01:40.872Z,80
2018-11-10T08:02:48.949Z,80
2018-11-10T08:03:57.012Z,80
2018-11-10T08:05:05.048Z,80
2018-11-10T08:06:13.137Z,100
2018-11-10T08:07:21.192Z,75
2018-11-10T08:08:29.268Z,75
2018-11-10T08:09:37.314Z,90
2018-11-10T08:10:45.391Z,90
2018-11-10T08:11:53.536Z,100
2018-11-10T08:13:01.521Z,100
2018-11-10T08:14:09.572Z,85
2018-11-10T08:15:17.639Z,105
2018-11-10T08:16:25.692Z,115
2018-11-10T08:17:33.759Z,105
2018-11-10T08:18:41.921Z,115
2018-11-10T08:19:49.898Z,120
2018-11-10T08:20:57.950Z,115
2018-11-10T08:22:06.017Z,130
2018-11-10T08:23:14.055Z,130
2018-11-10T08:24:22.139Z,120
2018-11-10T08:25:30.214Z,120
2018-11-10T08:26:38.271Z,130
2018-11-10T08:27:46.319Z,125
2018-11-10T08:28:54.380Z,130
2018-11-10T08:30:02.464Z,140
2018-11-10T08:31:10.545Z,140
2018-11-10T08:32:18.583Z,145
2018-11-10T08:33:26.654Z,130
2018-11-10T08:34:34.676Z,140
2018-11-10T08:35:42.764Z,155
2018-11-10T08:36:50.811Z,180
2018-11-10T08:37:58.895Z,160
2018-11-10T08:39:07.031Z,165
2018-11-10T08:40:14.984Z,175
2018-11-10T08:41:23.078Z,200
2018-11-10T08:42:31.133Z,205
2018-11-10T08:43:39.194Z,215
2018-11-10T08:44:47.275Z,225
2018-11-10T08:45:55.308Z,240
2018-11-10T08:47:03.398Z,240
2018-11-10T08:48:11.449Z,225
2018-11-10T08:49:19.600Z,225
2018-11-10T08:50:27.575Z,230
2018-11-10T08:51:35.657Z,220
2018-11-10T08:52:43.714Z,215
2018-11-10T08:53:51.770Z,205
2018-11-10T08:54:59.824Z,195
2018-11-10T08:56:07.904Z,195
2018-11-10T08:57:15.955Z,195
2018-11-10T08:58:24.034Z,200
2018-11-10T08:59:32.113Z,195
2018-11-10T09:00:40.155Z,200
2018-11-10T09:01:48.188Z,195
2018-11-10T09:02:56.289Z,195
2018-11-10T09:04:04.313Z,195
2018-11-10T09:05:12.414Z,195
2018-11-10T09:06:20.471Z,190
2018-11-10T09:07:28.534Z,195
2018-11-10T09:08:36.607Z,175
2018-11-10T09:09:44.672Z,185
2018-11-10T09:10:52.724Z,190
2018-11-10T09:12:00.781Z,210
2018-11-10T09:13:08.881Z,200
2018-11-10T09:14:16.948Z,205
2018-11-10T09:15:24.956Z,225
2018-11-10T09:16:33.041Z,225
2018-11-10T09:17:41.165Z,225
2018-11-10T09:18:49.194Z,235
2018-11-10T09:19:57.236Z,230
2018-11-10T09:21:05.322Z,205
2018-11-10T09:22:13.368Z,195
2018-11-10T09:23:21.447Z,215
2018-11-10T09:24:29.494Z,255
2018-11-10T09:25:37.548Z,290
2018-11-10T09:26:45.609Z,295
2018-11-10T09:27:53.697Z,275
2018-11-10T09:29:01.756Z,280
2018-11-10T09:30:09.805Z,305
2018-11-10T09:31:17.875Z,325
2018-11-10T09:32:25.950Z,305
2018-11-10T09:33:34.017Z,290
2018-11-10T09:34:42.074Z,270
2018-11-10T09:35:50.141Z,255
2018-11-10T09:36:58.190Z,260
2018-11-10T09:38:06.259Z,230
2018-11-10T09:39:14.298Z,230
2018-11-10T09:40:22.383Z,230
2018-11-10T09:41:30.462Z,230
2018-11-10T09:42:38.644Z,230
2018-11-10T09:43:46.589Z,220
2018-11-10T09:44:54.617Z,215
2018-11-10T09:46:02.693Z,220
2018-11-10T09:47:10.780Z,225
2018-11-10T09:48:18.842Z,235
2018-11-10T09:49:26.909Z,230
2018-11-10T09:50:34.989Z,235
2018-11-10T09:51:43.007Z,255
2018-11-10T09:52:51.092Z,260
2018-11-10T09:53:59.170Z,285
2018-11-10T09:55:07.221Z,260
2018-11-10T09:56:15.281Z,265
2018-11-10T09:57:23.355Z,290
2018-11-10T09:58:31.427Z,275
2018-11-10T09:59:39.496Z,275
2018-11-10T10:00:47.562Z,280
2018-11-10T10:01:55.822Z,285
2018-11-10T10:03:03.664Z,305
2018-11-10T10:04:11.747Z,340
2018-11-10T10:05:19.795Z,290
2018-11-10T10:06:27.872Z,290
2018-11-10T10:07:35.940Z,280
2018-11-10T10:08:44.053Z,270
2018-11-10T10:09:54.046Z,315
2018-11-10T10:11:09.416Z,285
2018-11-10T10:12:17.478Z,295
2018-11-10T10:13:25.537Z,305
2018-11-10T10:14:33.607Z,285
2018-11-10T10:15:41.676Z,300
2018-11-10T10:16:49.756Z,325
2018-11-10T10:17:57.790Z,350
2018-11-10T10:19:06.024Z,390
2018-11-10T10:20:13.934Z,355
2018-11-10T10:21:22.010Z,295
2018-11-10T10:22:40.878Z,265
2018-11-10T10:23:39.142Z,280
2018-11-10T10:24:47.177Z,285
2018-11-10T10:25:55.443Z,290
2018-11-10T10:27:03.513Z,300
2018-11-10T10:28:11.882Z,305
2018-11-10T10:29:19.646Z,350
2018-11-10T10:30:27.717Z,355
2018-11-10T10:31:35.776Z,305
2018-11-10T10:32:43.856Z,275
2018-11-10T10:33:52.337Z,280
2018-11-10T10:35:00.686Z,280
2018-11-10T10:36:08.031Z,265
2018-11-10T10:37:16.384Z,290
2018-11-10T10:38:24.160Z,290
2018-11-10T10:39:32.259Z,280
2018-11-10T10:40:40.280Z,225
2018-11-10T10:41:48.368Z,270
2018-11-10T10:42:56.491Z,290
2018-11-10T10:44:04.451Z,330
2018-11-10T10:45:12.545Z,325
2018-11-10T10:46:20.618Z,315
2018-11-10T10:47:28.680Z,330
2018-11-10T10:48:36.845Z,335
2018-11-10T10:49:44.773Z,330
2018-11-10T10:50:52.880Z,240
2018-11-10T10:52:00.933Z,365
2018-11-10T10:53:09.016Z,345
2018-11-10T10:54:17.060Z,355
2018-11-10T10:55:25.145Z,375
2018-11-10T10:56:33.377Z,380
2018-11-10T10:57:41.322Z,370
2018-11-10T10:58:49.327Z,355
2018-11-10T10:59:57.401Z,385
2018-11-10T11:01:05.462Z,370
2018-11-10T11:02:13.533Z,315
2018-11-10T11:03:21.663Z,365
2018-11-10T11:04:29.663Z,365
2018-11-10T11:05:37.725Z,360
2018-11-10T11:06:45.793Z,295
2018-11-10T11:07:53.858Z,305
2018-11-10T11:09:01.982Z,310
2018-11-10T11:10:09.992Z,290
2018-11-10T11:11:18.058Z,255
2018-11-10T11:12:26.113Z,260
2018-11-10T11:13:34.181Z,285
2018-11-10T11:14:42.240Z,290
2018-11-10T11:15:50.341Z,315
2018-11-10T11:16:58.383Z,295
2018-11-10T11:18:06.457Z,270
2018-11-10T11:19:14.484Z,295
2018-11-10T11:20:22.575Z,295
2018-11-10T11:21:30.646Z,320
2018-11-10T11:22:38.716Z,350
2018-11-10T11:23:46.772Z,305
2018-11-10T11:24:54.814Z,315
2018-11-10T11:26:02.901Z,300
2018-11-10T11:27:10.985Z,280
2018-11-10T11:28:19.083Z,320
2018-11-10T11:29:27.231Z,330
2018-11-10T11:30:35.156Z,375
2018-11-10T11:31:43.234Z,425
2018-11-10T11:32:51.296Z,350
2018-11-10T11:33:59.367Z,395
2018-11-10T11:35:07.449Z,365
2018-11-10T11:36:15.506Z,410
2018-11-10T11:37:23.573Z,380
2018-11-10T11:38:31.630Z,330
2018-11-10T11:39:39.692Z,335
2018-11-10T11:40:47.776Z,360
2018-11-10T11:41:55.828Z,355
2018-11-10T11:43:03.903Z,320
2018-11-10T11:44:11.960Z,330
2018-11-10T11:45:20.033Z,355
2018-11-10T11:46:28.080Z,330
2018-11-10T11:47:36.187Z,340
2018-11-10T11:48:44.204Z,295
2018-11-10T11:49:52.380Z,335
2018-11-10T11:51:00.352Z,330
2018-11-10T11:52:08.417Z,350
2018-11-10T11:53:16.487Z,380
2018-11-10T11:54:24.538Z,375
2018-11-10T11:55:32.625Z,375
2018-11-10T11:56:40.697Z,355
2018-11-10T11:57:48.848Z,300
2018-11-10T11:58:56.826Z,320
2018-11-10T12:00:04.872Z,335
2018-11-10T12:01:12.956Z,290
2018-11-10T12:02:21.125Z,270
2018-11-10T12:03:29.083Z,255
2018-11-10T12:04:37.264Z,285
2018-11-10T12:05:45.190Z,325
2018-11-10T12:06:53.297Z,315
2018-11-10T12:08:01.359Z,305
2018-11-10T12:09:09.421Z,275
2018-11-10T12:10:17.481Z,265
2018-11-10T12:11:25.562Z,245
2018-11-10T12:12:33.627Z,250
2018-11-10T12:13:41.673Z,245
2018-11-10T12:14:49.734Z,230
2018-11-10T12:15:57.820Z,210
2018-11-10T12:17:06.004Z,215
2018-11-10T12:18:13.934Z,225
2018-11-10T12:19:21.992Z,200
2018-11-10T12:20:30.068Z,200
2018-11-10T12:21:38.151Z,205
2018-11-10T12:22:46.201Z,205
2018-11-10T12:23:54.809Z,205
2018-11-10T12:25:02.335Z,210
2018-11-10T12:26:10.442Z,220
2018-11-10T12:27:18.481Z,230
2018-11-10T12:28:26.524Z,225
2018-11-10T12:29:34.579Z,225
2018-11-10T12:30:42.661Z,230
2018-11-10T12:31:50.755Z,235
2018-11-10T12:32:58.797Z,240
2018-11-10T12:34:06.847Z,235
2018-11-10T12:35:14.901Z,235
2018-11-10T12:36:22.990Z,240
2018-11-10T12:37:31.037Z,235
2018-11-10T12:38:39.127Z,230
2018-11-10T12:39:47.170Z,230
2018-11-10T12:40:55.222Z,235
2018-11-10T12:42:03.311Z,235
2018-11-10T12:43:11.367Z,230
2018-11-10T12:44:19.430Z,230
2018-11-10T12:45:27.506Z,230
2018-11-10T12:46:35.564Z,235
2018-11-10T12:47:43.756Z,235
2018-11-10T12:48:51.745Z,220
2018-11-10T12:49:59.761Z,215
2018-11-10T12:51:07.829Z,210
2018-11-10T12:52:15.938Z,205
2018-11-10T12:53:23.973Z,205
2018-11-10T12:54:32.039Z,210
2018-11-10T12:55:40.093Z,210
2018-11-10T12:56:48.155Z,210
2018-11-10T12:57:56.235Z,200
2018-11-10T12:59:04.274Z,205
2018-11-10T13:00:12.340Z,205
2018-11-10T13:01:20.404Z,200
2018-11-10T13:02:28.490Z,190
2018-11-10T13:03:36.539Z,185
2018-11-10T13:04:44.601Z,180
2018-11-10T13:05:52.657Z,180
2018-11-10T13:07:00.764Z,180
2018-11-10T13:08:08.832Z,175
2018-11-10T13:09:17.080Z,175
2018-11-10T13:10:24.903Z,175
2018-11-10T13:11:33.146Z,170
2018-11-10T13:12:41.066Z,170
2018-11-10T13:13:49.123Z,170
2018-11-10T13:14:57.185Z,175
2018-11-10T13:16:05.258Z,175
2018-11-10T13:17:13.388Z,175
2018-11-10T13:18:21.378Z,175
2018-11-10T13:19:29.443Z,175
2018-11-10T13:20:37.503Z,175
2018-11-10T13:21:45.568Z,175
2018-11-10T13:22:53.646Z,175
2018-11-10T13:24:01.744Z,180
2018-11-10T13:25:09.772Z,185
2018-11-10T13:26:17.829Z,190
2018-11-10T13:27:25.891Z,195
2018-11-10T13:28:33.950Z,200
2018-11-10T13:29:42.016Z,205
2018-11-10T13:30:50.173Z,205
2018-11-10T13:31:58.196Z,205
2018-11-10T13:33:06.214Z,205
2018-11-10T13:34:14.265Z,200
2018-11-10T13:35:22.320Z,200
2018-11-10T13:36:30.398Z,200
2018-11-10T13:37:38.465Z,200
2018-11-10T13:38:46.569Z,200
2018-11-10T13:39:54.579Z,195
2018-11-10T13:41:02.666Z,190
2018-11-10T13:42:10.728Z,185
2018-11-10T13:43:18.821Z,180
2018-11-10T13:44:26.901Z,175
2018-11-10T13:45:34.896Z,175
2018-11-10T13:46:42.995Z,180
2018-11-10T13:47:51.057Z,180
2018-11-10T13:48:59.114Z,180
2018-11-10T13:50:07.160Z,185
2018-11-10T13:51:15.424Z,190
2018-11-10T13:52:23.639Z,195
2018-11-10T13:53:31.374Z,195
2018-11-10T13:54:39.784Z,195
2018-11-10T13:55:47.528Z,200
2018-11-10T13:56:55.560Z,190
2018-11-10T13:58:03.616Z,185
2018-11-10T13:59:11.737Z,175
2018-11-10T14:00:19.756Z,165
2018-11-10T14:01:27.813Z,160
2018-11-10T14:02:35.873Z,150
2018-11-10T14:03:43.918Z,145
2018-11-10T14:04:51.995Z,140
2018-11-10T14:06:00.081Z,135
2018-11-10T14:07:08.136Z,140
2018-11-10T14:08:16.203Z,140
2018-11-10T14:09:24.240Z,140
2018-11-10T14:10:32.322Z,145
2018-11-10T14:11:40.377Z,145
2018-11-10T14:12:48.592Z,140
2018-11-10T14:13:56.511Z,130
2018-11-10T14:15:04.589Z,125
2018-11-10T14:16:12.651Z,120
2018-11-10T14:17:20.710Z,120
2018-11-10T14:18:28.785Z,120
2018-11-10T14:19:36.840Z,120
2018-11-10T14:20:44.951Z,120
2018-11-10T14:21:52.956Z,120
2018-11-10T14:23:01.023Z,120
2018-11-10T14:24:09.099Z,120
2018-11-10T14:25:17.158Z,120
2018-11-10T14:26:25.295Z,115
2018-11-10T14:27:33.276Z,115
2018-11-10T14:28:41.365Z,110
2018-11-10T14:29:49.391Z,105
2018-11-10T14:30:57.478Z,105
2018-11-10T14:32:05.546Z,100
2018-11-10T14:33:13.615Z,100
2018-11-10T14:34:21.668Z,95
2018-11-10T14:35:29.727Z,95
2018-11-10T14:36:37.791Z,100
2018-11-10T14:37:45.856Z,100
2018-11-10T14:38:53.920Z,100
2018-11-10T14:40:02.373Z,105
2018-11-10T14:41:10.057Z,105
2018-11-10T14:42:18.141Z,105
2018-11-10T14:43:26.180Z,105
2018-11-10T14:44:34.220Z,110
2018-11-10T14:45:42.285Z,115
2018-11-10T14:46:50.359Z,120
2018-11-10T14:47:58.433Z,120
2018-11-10T14:49:06.495Z,115
2018-11-10T14:50:14.565Z,110
2018-11-10T14:51:22.620Z,110
2018-11-10T14:52:30.731Z,110
2018-11-10T14:53:38.729Z,110
2018-11-10T14:54:46.812Z,105
2018-11-10T14:55:54.889Z,105
2018-11-10T14:57:02.940Z,100
2018-11-10T14:58:11.031Z,95
2018-11-10T14:59:19.076Z,90
2018-11-10T15:00:27.131Z,85
2018-11-10T15:01:35.185Z,85
2018-11-10T15:02:43.247Z,80
2018-11-10T15:03:51.318Z,80
2018-11-10T15:04:59.387Z,80
2018-11-10T15:06:07.451Z,75
2018-11-10T15:07:15.502Z,70
2018-11-10T15:08:23.572Z,65
2018-11-10T15:09:31.661Z,60
2018-11-10T15:10:39.703Z,55
2018-11-10T15:11:48.200Z,50
2018-11-10T15:12:55.827Z,50
2018-11-10T15:14:03.888Z,45
2018-11-10T15:15:11.972Z,45
2018-11-10T15:16:20.029Z,45
2018-11-10T15:17:28.128Z,45
2018-11-10T15:18:36.138Z,45
2018-11-10T15:19:44.183Z,45
2018-11-10T15:20:52.316Z,45
2018-11-10T15:22:00.338Z,45
2018-11-10T15:23:08.408Z,40
2018-11-10T15:24:16.468Z,40
2018-11-10T15:25:25.013Z,35
2018-11-10T15:26:32.587Z,35
2018-11-10T15:27:40.667Z,30
2018-11-10T15:28:48.712Z,30
2018-11-10T15:29:56.782Z,30
2018-11-10T15:31:04.805Z,25
2018-11-10T15:32:12.895Z,25
2018-11-10T15:33:20.978Z,25
2018-11-10T15:34:29.031Z,25
2018-11-10T15:35:37.080Z,25
2018-11-10T15:36:45.145Z,20
2018-11-10T15:37:53.215Z,20
2018-11-10T15:39:01.283Z,20
2018-11-10T15:40:09.348Z,20
2018-11-10T15:41:17.401Z,15
2018-11-10T15:42:25.474Z,15
2018-11-10T15:43:33.519Z,10
2018-11-10T15:44:41.585Z,10
2018-11-10T15:45:49.655Z,10
2018-11-10T15:46:57.714Z,10
2018-11-10T15:48:05.767Z,5
2018-11-10T15:49:13.834Z,5
2018-11-10T15:50:21.955Z,5
2018-11-10T15:51:29.969Z,5
2018-11-10T15:52:38.028Z,5
2018-11-10T15:53:46.103Z,5
2018-11-10T15:54:54.150Z,5
2018-11-10T15:56:02.205Z,0
2018-11-10T15:57:10.286Z,0
2018-11-10T15:58:18.348Z,0
2018-11-10T15:59:26.409Z,0
2018-11-10T16:00:34.441Z,0
2018-11-10T16:01:42.531Z,0
2018-11-10T16:02:50.589Z,0
2018-11-10T16:03:58.668Z,0
2018-11-10T16:05:06.714Z,0
2018-11-10T16:06:14.758Z,0
2018-11-10T16:07:22.840Z,0
2018-11-10T16:08:30.901Z,0
2018-11-10T16:09:38.962Z,0
2018-11-10T16:10:47.535Z,0